sensor_id;sensor_type;location;lat;lon;timestamp;P1;durP1;ratioP1;P2;durP2;ratioP2
45909;SDS011;31622;55.416;37.840;2024-03-02T00:02:46;16.08;;;8.90;;
45909;SDS011;31622;55.416;37.840;2024-03-02T00:05:14;16.00;;;8.70;;
45909;SDS011;31622;55.416;37.840;2024-03-02T00:07:41;14.60;;;8.75;;
45909;SDS011;31622;55.416;37.840;2024-03-02T00:10:08;14.82;;;9.00;;
45909;SDS011;31622;55.416;37.840;2024-03-02T00:12:38;16.25;;;8.75;;
45909;SDS011;31622;55.416;37.840;2024-03-02T00:15:05;14.98;;;8.18;;
45909;SDS011;31622;55.416;37.840;2024-03-02T00:17:42;16.92;;;8.52;;
45909;SDS011;31622;55.416;37.840;2024-03-02T00:20:08;15.00;;;8.88;;
45909;SDS011;31622;55.416;37.840;2024-03-02T00:22:35;13.38;;;7.68;;
45909;SDS011;31622;55.416;37.840;2024-03-02T00:25:02;14.07;;;7.82;;
45909;SDS011;31622;55.416;37.840;2024-03-02T00:27:29;13.85;;;8.20;;
45909;SDS011;31622;55.416;37.840;2024-03-02T00:29:55;12.75;;;7.28;;
45909;SDS011;31622;55.416;37.840;2024-03-02T00:32:22;13.52;;;7.63;;
45909;SDS011;31622;55.416;37.840;2024-03-02T00:34:47;13.60;;;7.47;;
45909;SDS011;31622;55.416;37.840;2024-03-02T00:37:13;11.75;;;7.47;;
45909;SDS011;31622;55.416;37.840;2024-03-02T00:39:39;13.30;;;7.18;;
45909;SDS011;31622;55.416;37.840;2024-03-02T00:42:05;11.45;;;6.90;;
45909;SDS011;31622;55.416;37.840;2024-03-02T00:44:31;13.40;;;6.53;;
45909;SDS011;31622;55.416;37.840;2024-03-02T00:47:01;12.20;;;7.38;;
45909;SDS011;31622;55.416;37.840;2024-03-02T00:49:26;9.18;;;6.30;;
45909;SDS011;31622;55.416;37.840;2024-03-02T00:51:54;11.02;;;6.57;;
45909;SDS011;31622;55.416;37.840;2024-03-02T00:54:28;10.30;;;6.30;;
45909;SDS011;31622;55.416;37.840;2024-03-02T00:56:55;9.05;;;6.05;;
45909;SDS011;31622;55.416;37.840;2024-03-02T00:59:21;9.38;;;6.13;;
45909;SDS011;31622;55.416;37.840;2024-03-02T01:01:48;11.38;;;6.72;;
45909;SDS011;31622;55.416;37.840;2024-03-02T01:04:14;13.00;;;6.88;;
45909;SDS011;31622;55.416;37.840;2024-03-02T01:06:42;13.02;;;7.38;;
45909;SDS011;31622;55.416;37.840;2024-03-02T01:09:08;13.10;;;6.97;;
45909;SDS011;31622;55.416;37.840;2024-03-02T01:11:34;15.43;;;8.18;;
45909;SDS011;31622;55.416;37.840;2024-03-02T01:13:59;17.25;;;8.77;;
45909;SDS011;31622;55.416;37.840;2024-03-02T01:16:25;15.55;;;8.20;;
45909;SDS011;31622;55.416;37.840;2024-03-02T01:18:51;15.18;;;8.18;;
45909;SDS011;31622;55.416;37.840;2024-03-02T01:21:17;15.85;;;7.90;;
45909;SDS011;31622;55.416;37.840;2024-03-02T01:23:42;14.13;;;8.38;;
45909;SDS011;31622;55.416;37.840;2024-03-02T01:26:08;15.00;;;7.82;;
45909;SDS011;31622;55.416;37.840;2024-03-02T01:28:34;15.73;;;7.75;;
45909;SDS011;31622;55.416;37.840;2024-03-02T01:31:00;13.40;;;7.93;;
45909;SDS011;31622;55.416;37.840;2024-03-02T01:33:27;12.27;;;6.78;;
45909;SDS011;31622;55.416;37.840;2024-03-02T01:35:52;13.43;;;7.05;;
45909;SDS011;31622;55.416;37.840;2024-03-02T01:38:18;12.00;;;6.78;;
45909;SDS011;31622;55.416;37.840;2024-03-02T01:40:44;14.38;;;7.00;;
45909;SDS011;31622;55.416;37.840;2024-03-02T01:43:10;15.25;;;6.57;;
45909;SDS011;31622;55.416;37.840;2024-03-02T01:45:36;18.60;;;7.20;;
45909;SDS011;31622;55.416;37.840;2024-03-02T01:48:03;12.00;;;6.82;;
45909;SDS011;31622;55.416;37.840;2024-03-02T01:50:32;12.23;;;6.68;;
45909;SDS011;31622;55.416;37.840;2024-03-02T01:52:58;11.50;;;6.10;;
45909;SDS011;31622;55.416;37.840;2024-03-02T01:55:25;12.20;;;6.70;;
45909;SDS011;31622;55.416;37.840;2024-03-02T01:57:51;14.00;;;6.50;;
45909;SDS011;31622;55.416;37.840;2024-03-02T02:00:17;10.90;;;6.22;;
45909;SDS011;31622;55.416;37.840;2024-03-02T02:02:44;10.00;;;6.40;;
45909;SDS011;31622;55.416;37.840;2024-03-02T02:05:10;10.15;;;6.07;;
45909;SDS011;31622;55.416;37.840;2024-03-02T02:07:35;10.57;;;5.70;;
45909;SDS011;31622;55.416;37.840;2024-03-02T02:10:01;9.32;;;5.63;;
45909;SDS011;31622;55.416;37.840;2024-03-02T02:12:27;11.55;;;5.80;;
45909;SDS011;31622;55.416;37.840;2024-03-02T02:14:53;9.80;;;5.60;;
45909;SDS011;31622;55.416;37.840;2024-03-02T02:17:19;8.27;;;5.43;;
45909;SDS011;31622;55.416;37.840;2024-03-02T02:19:45;9.80;;;5.47;;
45909;SDS011;31622;55.416;37.840;2024-03-02T02:22:10;8.75;;;5.28;;
45909;SDS011;31622;55.416;37.840;2024-03-02T02:24:39;9.18;;;5.57;;
45909;SDS011;31622;55.416;37.840;2024-03-02T02:27:08;10.77;;;5.97;;
45909;SDS011;31622;55.416;37.840;2024-03-02T02:29:35;8.75;;;5.22;;
45909;SDS011;31622;55.416;37.840;2024-03-02T02:32:03;9.73;;;5.65;;
45909;SDS011;31622;55.416;37.840;2024-03-02T02:34:29;10.40;;;5.72;;
45909;SDS011;31622;55.416;37.840;2024-03-02T02:36:54;8.65;;;5.10;;
45909;SDS011;31622;55.416;37.840;2024-03-02T02:39:22;7.95;;;5.18;;
45909;SDS011;31622;55.416;37.840;2024-03-02T02:41:48;8.13;;;5.10;;
45909;SDS011;31622;55.416;37.840;2024-03-02T02:44:14;8.73;;;5.15;;
45909;SDS011;31622;55.416;37.840;2024-03-02T02:46:40;7.95;;;5.20;;
45909;SDS011;31622;55.416;37.840;2024-03-02T02:49:06;7.07;;;4.80;;
45909;SDS011;31622;55.416;37.840;2024-03-02T02:51:31;7.43;;;4.90;;
45909;SDS011;31622;55.416;37.840;2024-03-02T02:53:57;8.65;;;5.38;;
45909;SDS011;31622;55.416;37.840;2024-03-02T02:56:23;9.25;;;4.82;;
45909;SDS011;31622;55.416;37.840;2024-03-02T02:58:48;7.95;;;5.10;;
45909;SDS011;31622;55.416;37.840;2024-03-02T03:01:17;7.68;;;5.20;;
45909;SDS011;31622;55.416;37.840;2024-03-02T03:03:45;8.27;;;5.17;;
45909;SDS011;31622;55.416;37.840;2024-03-02T03:06:11;8.23;;;4.93;;
45909;SDS011;31622;55.416;37.840;2024-03-02T03:08:37;7.68;;;4.65;;
45909;SDS011;31622;55.416;37.840;2024-03-02T03:11:03;7.45;;;4.47;;
45909;SDS011;31622;55.416;37.840;2024-03-02T03:13:33;7.15;;;4.28;;
45909;SDS011;31622;55.416;37.840;2024-03-02T03:15:59;12.98;;;5.18;;
45909;SDS011;31622;55.416;37.840;2024-03-02T03:18:25;11.10;;;4.53;;
45909;SDS011;31622;55.416;37.840;2024-03-02T03:20:51;6.45;;;4.47;;
45909;SDS011;31622;55.416;37.840;2024-03-02T03:23:16;7.68;;;5.05;;
45909;SDS011;31622;55.416;37.840;2024-03-02T03:25:43;7.10;;;4.88;;
45909;SDS011;31622;55.416;37.840;2024-03-02T03:28:08;7.75;;;4.85;;
45909;SDS011;31622;55.416;37.840;2024-03-02T03:30:37;9.10;;;5.03;;
45909;SDS011;31622;55.416;37.840;2024-03-02T03:33:03;8.55;;;4.63;;
45909;SDS011;31622;55.416;37.840;2024-03-02T03:35:32;7.60;;;4.88;;
45909;SDS011;31622;55.416;37.840;2024-03-02T03:37:58;8.38;;;4.57;;
45909;SDS011;31622;55.416;37.840;2024-03-02T03:40:24;7.22;;;4.35;;
45909;SDS011;31622;55.416;37.840;2024-03-02T03:42:50;7.75;;;4.55;;
45909;SDS011;31622;55.416;37.840;2024-03-02T03:45:16;7.72;;;4.40;;
45909;SDS011;31622;55.416;37.840;2024-03-02T03:47:41;8.13;;;4.80;;
45909;SDS011;31622;55.416;37.840;2024-03-02T03:50:07;6.63;;;4.45;;
45909;SDS011;31622;55.416;37.840;2024-03-02T03:52:33;7.00;;;4.60;;
45909;SDS011;31622;55.416;37.840;2024-03-02T03:54:59;6.75;;;4.55;;
45909;SDS011;31622;55.416;37.840;2024-03-02T03:57:25;6.65;;;4.47;;
45909;SDS011;31622;55.416;37.840;2024-03-02T03:59:52;8.27;;;4.30;;
45909;SDS011;31622;55.416;37.840;2024-03-02T04:02:18;6.55;;;4.03;;
45909;SDS011;31622;55.416;37.840;2024-03-02T04:04:43;7.22;;;4.53;;
45909;SDS011;31622;55.416;37.840;2024-03-02T04:07:09;6.20;;;4.45;;
45909;SDS011;31622;55.416;37.840;2024-03-02T04:09:35;6.78;;;4.35;;
45909;SDS011;31622;55.416;37.840;2024-03-02T04:12:00;5.85;;;4.40;;
45909;SDS011;31622;55.416;37.840;2024-03-02T04:14:26;5.85;;;4.15;;
45909;SDS011;31622;55.416;37.840;2024-03-02T04:16:52;6.78;;;4.10;;
45909;SDS011;31622;55.416;37.840;2024-03-02T04:19:18;6.30;;;4.35;;
45909;SDS011;31622;55.416;37.840;2024-03-02T04:21:43;6.03;;;4.55;;
45909;SDS011;31622;55.416;37.840;2024-03-02T04:24:09;7.78;;;4.47;;
45909;SDS011;31622;55.416;37.840;2024-03-02T04:26:35;6.80;;;4.13;;
45909;SDS011;31622;55.416;37.840;2024-03-02T04:29:00;7.03;;;4.78;;
45909;SDS011;31622;55.416;37.840;2024-03-02T04:31:27;6.32;;;4.60;;
45909;SDS011;31622;55.416;37.840;2024-03-02T04:33:52;6.53;;;4.63;;
45909;SDS011;31622;55.416;37.840;2024-03-02T04:36:19;6.85;;;4.35;;
45909;SDS011;31622;55.416;37.840;2024-03-02T04:38:45;10.27;;;4.38;;
45909;SDS011;31622;55.416;37.840;2024-03-02T04:41:10;5.40;;;3.97;;
45909;SDS011;31622;55.416;37.840;2024-03-02T04:43:36;7.55;;;4.45;;
45909;SDS011;31622;55.416;37.840;2024-03-02T04:46:02;7.53;;;4.68;;
45909;SDS011;31622;55.416;37.840;2024-03-02T04:48:27;7.22;;;4.40;;
45909;SDS011;31622;55.416;37.840;2024-03-02T04:50:53;10.60;;;4.65;;
45909;SDS011;31622;55.416;37.840;2024-03-02T04:53:19;8.48;;;4.40;;
45909;SDS011;31622;55.416;37.840;2024-03-02T04:55:45;9.25;;;4.72;;
45909;SDS011;31622;55.416;37.840;2024-03-02T04:58:29;9.27;;;4.97;;
45909;SDS011;31622;55.416;37.840;2024-03-02T05:00:55;8.68;;;4.80;;
45909;SDS011;31622;55.416;37.840;2024-03-02T05:03:21;6.82;;;4.82;;
45909;SDS011;31622;55.416;37.840;2024-03-02T05:05:47;11.45;;;4.80;;
45909;SDS011;31622;55.416;37.840;2024-03-02T05:08:13;8.35;;;4.57;;
45909;SDS011;31622;55.416;37.840;2024-03-02T05:10:39;8.25;;;4.43;;
45909;SDS011;31622;55.416;37.840;2024-03-02T05:13:05;6.97;;;4.35;;
45909;SDS011;31622;55.416;37.840;2024-03-02T05:15:30;7.50;;;4.88;;
45909;SDS011;31622;55.416;37.840;2024-03-02T05:17:57;8.38;;;4.90;;
45909;SDS011;31622;55.416;37.840;2024-03-02T05:20:23;7.60;;;5.00;;
45909;SDS011;31622;55.416;37.840;2024-03-02T05:22:48;7.40;;;4.45;;
45909;SDS011;31622;55.416;37.840;2024-03-02T05:25:14;7.10;;;4.88;;
45909;SDS011;31622;55.416;37.840;2024-03-02T05:27:40;9.38;;;5.10;;
45909;SDS011;31622;55.416;37.840;2024-03-02T05:30:06;9.25;;;5.15;;
45909;SDS011;31622;55.416;37.840;2024-03-02T05:32:33;7.40;;;4.35;;
45909;SDS011;31622;55.416;37.840;2024-03-02T05:34:59;9.20;;;4.68;;
45909;SDS011;31622;55.416;37.840;2024-03-02T05:37:24;7.40;;;4.65;;
45909;SDS011;31622;55.416;37.840;2024-03-02T05:39:50;8.95;;;5.38;;
45909;SDS011;31622;55.416;37.840;2024-03-02T05:42:16;9.45;;;4.72;;
45909;SDS011;31622;55.416;37.840;2024-03-02T05:44:44;6.68;;;4.78;;
45909;SDS011;31622;55.416;37.840;2024-03-02T05:47:10;7.72;;;5.07;;
45909;SDS011;31622;55.416;37.840;2024-03-02T05:49:35;7.13;;;5.00;;
45909;SDS011;31622;55.416;37.840;2024-03-02T05:52:01;8.80;;;4.82;;
45909;SDS011;31622;55.416;37.840;2024-03-02T05:54:28;10.57;;;5.63;;
45909;SDS011;31622;55.416;37.840;2024-03-02T05:56:54;7.38;;;5.30;;
45909;SDS011;31622;55.416;37.840;2024-03-02T05:59:19;7.68;;;5.07;;
45909;SDS011;31622;55.416;37.840;2024-03-02T06:01:45;10.65;;;5.07;;
45909;SDS011;31622;55.416;37.840;2024-03-02T06:04:15;9.40;;;5.00;;
45909;SDS011;31622;55.416;37.840;2024-03-02T06:06:40;8.05;;;5.30;;
45909;SDS011;31622;55.416;37.840;2024-03-02T06:09:06;10.70;;;6.35;;
45909;SDS011;31622;55.416;37.840;2024-03-02T06:11:38;9.98;;;6.13;;
45909;SDS011;31622;55.416;37.840;2024-03-02T06:14:08;13.77;;;7.22;;
45909;SDS011;31622;55.416;37.840;2024-03-02T06:16:34;14.93;;;9.32;;
45909;SDS011;31622;55.416;37.840;2024-03-02T06:19:00;14.98;;;9.95;;
45909;SDS011;31622;55.416;37.840;2024-03-02T06:21:27;23.40;;;12.23;;
45909;SDS011;31622;55.416;37.840;2024-03-02T06:23:52;35.97;;;15.70;;
45909;SDS011;31622;55.416;37.840;2024-03-02T06:26:18;25.63;;;15.70;;
45909;SDS011;31622;55.416;37.840;2024-03-02T06:28:44;25.48;;;15.55;;
45909;SDS011;31622;55.416;37.840;2024-03-02T06:31:11;27.10;;;16.17;;
45909;SDS011;31622;55.416;37.840;2024-03-02T06:33:37;22.67;;;14.90;;
45909;SDS011;31622;55.416;37.840;2024-03-02T06:36:03;26.17;;;14.80;;
45909;SDS011;31622;55.416;37.840;2024-03-02T06:38:29;25.17;;;15.90;;
45909;SDS011;31622;55.416;37.840;2024-03-02T06:40:54;21.75;;;15.35;;
45909;SDS011;31622;55.416;37.840;2024-03-02T06:43:20;25.50;;;14.32;;
45909;SDS011;31622;55.416;37.840;2024-03-02T06:45:49;21.80;;;14.82;;
45909;SDS011;31622;55.416;37.840;2024-03-02T06:48:16;21.92;;;13.65;;
45909;SDS011;31622;55.416;37.840;2024-03-02T06:50:48;20.40;;;13.55;;
45909;SDS011;31622;55.416;37.840;2024-03-02T06:53:15;20.92;;;13.80;;
45909;SDS011;31622;55.416;37.840;2024-03-02T06:55:44;22.98;;;13.95;;
45909;SDS011;31622;55.416;37.840;2024-03-02T06:58:11;20.50;;;14.23;;
45909;SDS011;31622;55.416;37.840;2024-03-02T07:00:43;19.83;;;12.65;;
45909;SDS011;31622;55.416;37.840;2024-03-02T07:03:09;19.55;;;12.52;;
45909;SDS011;31622;55.416;37.840;2024-03-02T07:05:35;17.85;;;12.00;;
45909;SDS011;31622;55.416;37.840;2024-03-02T07:08:01;18.02;;;12.45;;
45909;SDS011;31622;55.416;37.840;2024-03-02T07:10:28;19.08;;;11.63;;
45909;SDS011;31622;55.416;37.840;2024-03-02T07:12:53;17.25;;;11.15;;
45909;SDS011;31622;55.416;37.840;2024-03-02T07:15:19;15.38;;;10.18;;
45909;SDS011;31622;55.416;37.840;2024-03-02T07:17:54;16.33;;;10.48;;
45909;SDS011;31622;55.416;37.840;2024-03-02T07:20:20;16.92;;;10.63;;
45909;SDS011;31622;55.416;37.840;2024-03-02T07:22:45;19.98;;;10.68;;
45909;SDS011;31622;55.416;37.840;2024-03-02T07:25:11;19.35;;;10.27;;
45909;SDS011;31622;55.416;37.840;2024-03-02T07:27:38;19.52;;;10.65;;
45909;SDS011;31622;55.416;37.840;2024-03-02T07:30:04;20.48;;;10.48;;
45909;SDS011;31622;55.416;37.840;2024-03-02T07:32:30;19.02;;;10.20;;
45909;SDS011;31622;55.416;37.840;2024-03-02T07:34:56;18.95;;;10.55;;
45909;SDS011;31622;55.416;37.840;2024-03-02T07:37:22;18.70;;;9.68;;
45909;SDS011;31622;55.416;37.840;2024-03-02T07:39:48;18.08;;;10.10;;
45909;SDS011;31622;55.416;37.840;2024-03-02T07:42:14;19.45;;;9.43;;
45909;SDS011;31622;55.416;37.840;2024-03-02T07:44:40;24.58;;;9.68;;
45909;SDS011;31622;55.416;37.840;2024-03-02T07:47:06;21.05;;;10.55;;
45909;SDS011;31622;55.416;37.840;2024-03-02T07:49:32;27.38;;;10.50;;
45909;SDS011;31622;55.416;37.840;2024-03-02T07:51:58;24.58;;;10.80;;
45909;SDS011;31622;55.416;37.840;2024-03-02T07:54:23;25.52;;;10.15;;
45909;SDS011;31622;55.416;37.840;2024-03-02T07:56:49;22.15;;;9.93;;
45909;SDS011;31622;55.416;37.840;2024-03-02T07:59:15;26.23;;;10.40;;
45909;SDS011;31622;55.416;37.840;2024-03-02T08:01:41;22.85;;;10.68;;
45909;SDS011;31622;55.416;37.840;2024-03-02T08:04:07;21.95;;;9.68;;
45909;SDS011;31622;55.416;37.840;2024-03-02T08:06:32;19.63;;;9.48;;
45909;SDS011;31622;55.416;37.840;2024-03-02T08:08:58;21.88;;;8.90;;
45909;SDS011;31622;55.416;37.840;2024-03-02T08:11:25;19.50;;;8.25;;
45909;SDS011;31622;55.416;37.840;2024-03-02T08:13:52;19.67;;;7.85;;
45909;SDS011;31622;55.416;37.840;2024-03-02T08:16:20;17.70;;;8.65;;
45909;SDS011;31622;55.416;37.840;2024-03-02T08:18:47;19.48;;;8.43;;
45909;SDS011;31622;55.416;37.840;2024-03-02T08:21:13;18.48;;;8.07;;
45909;SDS011;31622;55.416;37.840;2024-03-02T08:23:39;18.85;;;8.15;;
45909;SDS011;31622;55.416;37.840;2024-03-02T08:26:07;16.58;;;7.38;;
45909;SDS011;31622;55.416;37.840;2024-03-02T08:28:36;13.93;;;7.53;;
45909;SDS011;31622;55.416;37.840;2024-03-02T08:31:06;16.55;;;7.25;;
45909;SDS011;31622;55.416;37.840;2024-03-02T08:33:32;13.68;;;7.00;;
45909;SDS011;31622;55.416;37.840;2024-03-02T08:35:58;15.82;;;7.25;;
45909;SDS011;31622;55.416;37.840;2024-03-02T08:38:24;16.30;;;7.10;;
45909;SDS011;31622;55.416;37.840;2024-03-02T08:40:50;13.43;;;6.72;;
45909;SDS011;31622;55.416;37.840;2024-03-02T08:43:17;14.07;;;6.70;;
45909;SDS011;31622;55.416;37.840;2024-03-02T08:45:42;13.05;;;7.07;;
45909;SDS011;31622;55.416;37.840;2024-03-02T08:48:09;12.40;;;6.32;;
45909;SDS011;31622;55.416;37.840;2024-03-02T08:50:38;12.85;;;6.10;;
45909;SDS011;31622;55.416;37.840;2024-03-02T08:53:04;13.48;;;7.22;;
45909;SDS011;31622;55.416;37.840;2024-03-02T08:55:30;10.15;;;6.10;;
45909;SDS011;31622;55.416;37.840;2024-03-02T08:57:56;11.98;;;6.28;;
45909;SDS011;31622;55.416;37.840;2024-03-02T09:00:22;10.73;;;6.10;;
45909;SDS011;31622;55.416;37.840;2024-03-02T09:02:48;13.73;;;7.03;;
45909;SDS011;31622;55.416;37.840;2024-03-02T09:05:15;10.38;;;5.90;;
45909;SDS011;31622;55.416;37.840;2024-03-02T09:07:41;12.10;;;6.60;;
45909;SDS011;31622;55.416;37.840;2024-03-02T09:10:07;10.95;;;6.15;;
45909;SDS011;31622;55.416;37.840;2024-03-02T09:12:33;10.85;;;6.00;;
45909;SDS011;31622;55.416;37.840;2024-03-02T09:14:59;12.35;;;6.40;;
45909;SDS011;31622;55.416;37.840;2024-03-02T09:17:25;10.10;;;5.93;;
45909;SDS011;31622;55.416;37.840;2024-03-02T09:19:51;10.25;;;6.20;;
45909;SDS011;31622;55.416;37.840;2024-03-02T09:22:18;8.18;;;5.57;;
45909;SDS011;31622;55.416;37.840;2024-03-02T09:24:44;11.98;;;5.88;;
45909;SDS011;31622;55.416;37.840;2024-03-02T09:27:10;10.35;;;5.75;;
45909;SDS011;31622;55.416;37.840;2024-03-02T09:29:35;10.23;;;6.13;;
45909;SDS011;31622;55.416;37.840;2024-03-02T09:32:01;10.77;;;5.47;;
45909;SDS011;31622;55.416;37.840;2024-03-02T09:34:27;12.07;;;6.13;;
45909;SDS011;31622;55.416;37.840;2024-03-02T09:36:53;10.75;;;5.93;;
45909;SDS011;31622;55.416;37.840;2024-03-02T09:39:19;9.18;;;5.65;;
45909;SDS011;31622;55.416;37.840;2024-03-02T09:41:45;8.10;;;5.68;;
45909;SDS011;31622;55.416;37.840;2024-03-02T09:44:10;9.80;;;5.88;;
45909;SDS011;31622;55.416;37.840;2024-03-02T09:46:36;11.13;;;5.70;;
45909;SDS011;31622;55.416;37.840;2024-03-02T09:49:02;8.05;;;5.18;;
45909;SDS011;31622;55.416;37.840;2024-03-02T09:51:28;10.75;;;6.25;;
45909;SDS011;31622;55.416;37.840;2024-03-02T09:53:55;11.40;;;5.55;;
45909;SDS011;31622;55.416;37.840;2024-03-02T09:56:21;8.32;;;5.78;;
45909;SDS011;31622;55.416;37.840;2024-03-02T09:58:50;9.57;;;5.78;;
45909;SDS011;31622;55.416;37.840;2024-03-02T10:01:16;8.10;;;5.20;;
45909;SDS011;31622;55.416;37.840;2024-03-02T10:03:42;10.57;;;5.45;;
45909;SDS011;31622;55.416;37.840;2024-03-02T10:06:23;7.93;;;5.00;;
45909;SDS011;31622;55.416;37.840;2024-03-02T10:08:50;8.32;;;5.28;;
45909;SDS011;31622;55.416;37.840;2024-03-02T10:11:26;8.27;;;5.15;;
45909;SDS011;31622;55.416;37.840;2024-03-02T10:14:11;7.25;;;5.43;;
45909;SDS011;31622;55.416;37.840;2024-03-02T10:16:38;8.10;;;4.88;;
45909;SDS011;31622;55.416;37.840;2024-03-02T10:21:50;8.27;;;5.20;;
45909;SDS011;31622;55.416;37.840;2024-03-02T10:24:21;7.25;;;4.57;;
45909;SDS011;31622;55.416;37.840;2024-03-02T10:26:47;8.73;;;5.05;;
45909;SDS011;31622;55.416;37.840;2024-03-02T10:29:14;8.35;;;4.72;;
45909;SDS011;31622;55.416;37.840;2024-03-02T10:31:44;7.32;;;4.60;;
45909;SDS011;31622;55.416;37.840;2024-03-02T10:34:12;8.70;;;4.82;;
45909;SDS011;31622;55.416;37.840;2024-03-02T10:36:42;8.65;;;5.03;;
45909;SDS011;31622;55.416;37.840;2024-03-02T10:39:09;9.65;;;4.50;;
45909;SDS011;31622;55.416;37.840;2024-03-02T10:41:35;8.60;;;4.50;;
45909;SDS011;31622;55.416;37.840;2024-03-02T10:44:03;10.38;;;4.88;;
45909;SDS011;31622;55.416;37.840;2024-03-02T10:46:33;6.65;;;4.60;;
45909;SDS011;31622;55.416;37.840;2024-03-02T10:49:03;8.23;;;5.10;;
45909;SDS011;31622;55.416;37.840;2024-03-02T10:51:33;9.40;;;5.05;;
45909;SDS011;31622;55.416;37.840;2024-03-02T10:54:01;6.88;;;4.72;;
45909;SDS011;31622;55.416;37.840;2024-03-02T10:56:32;7.80;;;5.03;;
45909;SDS011;31622;55.416;37.840;2024-03-02T11:01:41;6.25;;;4.70;;
45909;SDS011;31622;55.416;37.840;2024-03-02T11:04:09;8.80;;;5.38;;
45909;SDS011;31622;55.416;37.840;2024-03-02T11:06:36;11.15;;;4.97;;
45909;SDS011;31622;55.416;37.840;2024-03-02T11:09:07;7.90;;;4.90;;
45909;SDS011;31622;55.416;37.840;2024-03-02T11:11:40;7.85;;;5.60;;
45909;SDS011;31622;55.416;37.840;2024-03-02T11:14:07;6.95;;;4.50;;
45909;SDS011;31622;55.416;37.840;2024-03-02T11:16:45;7.47;;;5.07;;
45909;SDS011;31622;55.416;37.840;2024-03-02T11:19:12;12.38;;;6.47;;
45909;SDS011;31622;55.416;37.840;2024-03-02T11:21:38;17.70;;;7.60;;
45909;SDS011;31622;55.416;37.840;2024-03-02T11:26:49;16.42;;;8.30;;
45909;SDS011;31622;55.416;37.840;2024-03-02T11:34:55;22.90;;;10.90;;
45909;SDS011;31622;55.416;37.840;2024-03-02T11:37:20;18.25;;;10.95;;
45909;SDS011;31622;55.416;37.840;2024-03-02T11:39:50;17.30;;;10.23;;
45909;SDS011;31622;55.416;37.840;2024-03-02T11:42:16;18.05;;;9.73;;
45909;SDS011;31622;55.416;37.840;2024-03-02T11:44:42;19.55;;;10.57;;
45909;SDS011;31622;55.416;37.840;2024-03-02T11:47:11;19.58;;;10.90;;
45909;SDS011;31622;55.416;37.840;2024-03-02T11:49:40;15.63;;;9.93;;
45909;SDS011;31622;55.416;37.840;2024-03-02T11:52:07;18.83;;;10.27;;
45909;SDS011;31622;55.416;37.840;2024-03-02T11:54:34;13.48;;;9.75;;
45909;SDS011;31622;55.416;37.840;2024-03-02T11:57:05;15.55;;;10.57;;
45909;SDS011;31622;55.416;37.840;2024-03-02T11:59:32;13.77;;;9.52;;
45909;SDS011;31622;55.416;37.840;2024-03-02T12:01:58;13.88;;;9.57;;
45909;SDS011;31622;55.416;37.840;2024-03-02T12:04:25;15.13;;;9.95;;
45909;SDS011;31622;55.416;37.840;2024-03-02T12:06:54;13.90;;;9.40;;
45909;SDS011;31622;55.416;37.840;2024-03-02T12:09:21;13.88;;;9.73;;
45909;SDS011;31622;55.416;37.840;2024-03-02T12:11:47;13.73;;;9.68;;
45909;SDS011;31622;55.416;37.840;2024-03-02T12:14:13;15.85;;;9.07;;
45909;SDS011;31622;55.416;37.840;2024-03-02T12:16:43;15.55;;;9.15;;
45909;SDS011;31622;55.416;37.840;2024-03-02T12:19:09;11.63;;;8.43;;
45909;SDS011;31622;55.416;37.840;2024-03-02T12:21:35;13.30;;;9.00;;
45909;SDS011;31622;55.416;37.840;2024-03-02T12:24:01;11.93;;;8.27;;
45909;SDS011;31622;55.416;37.840;2024-03-02T12:26:27;11.85;;;8.52;;
45909;SDS011;31622;55.416;37.840;2024-03-02T12:28:54;12.70;;;8.05;;
45909;SDS011;31622;55.416;37.840;2024-03-02T12:31:20;12.98;;;8.20;;
45909;SDS011;31622;55.416;37.840;2024-03-02T12:33:46;13.63;;;8.23;;
45909;SDS011;31622;55.416;37.840;2024-03-02T12:36:13;12.25;;;7.97;;
45909;SDS011;31622;55.416;37.840;2024-03-02T12:38:45;13.20;;;7.80;;
45909;SDS011;31622;55.416;37.840;2024-03-02T12:41:14;11.80;;;7.60;;
45909;SDS011;31622;55.416;37.840;2024-03-02T12:43:41;10.15;;;7.25;;
45909;SDS011;31622;55.416;37.840;2024-03-02T12:46:07;12.30;;;7.80;;
45909;SDS011;31622;55.416;37.840;2024-03-02T12:48:32;10.52;;;7.68;;
45909;SDS011;31622;55.416;37.840;2024-03-02T12:50:58;10.45;;;7.78;;
45909;SDS011;31622;55.416;37.840;2024-03-02T12:53:24;11.02;;;8.00;;
45909;SDS011;31622;55.416;37.840;2024-03-02T12:55:50;11.20;;;7.88;;
45909;SDS011;31622;55.416;37.840;2024-03-02T12:58:16;12.95;;;8.13;;
45909;SDS011;31622;55.416;37.840;2024-03-02T13:00:44;12.15;;;8.13;;
45909;SDS011;31622;55.416;37.840;2024-03-02T13:03:09;11.88;;;8.57;;
45909;SDS011;31622;55.416;37.840;2024-03-02T13:05:36;10.10;;;7.88;;
45909;SDS011;31622;55.416;37.840;2024-03-02T13:08:02;10.55;;;8.15;;
45909;SDS011;31622;55.416;37.840;2024-03-02T13:10:30;10.80;;;8.38;;
45909;SDS011;31622;55.416;37.840;2024-03-02T13:12:56;11.15;;;7.70;;
45909;SDS011;31622;55.416;37.840;2024-03-02T13:15:22;9.23;;;6.47;;
45909;SDS011;31622;55.416;37.840;2024-03-02T13:17:48;11.73;;;7.10;;
45909;SDS011;31622;55.416;37.840;2024-03-02T13:20:14;9.82;;;6.43;;
45909;SDS011;31622;55.416;37.840;2024-03-02T13:22:40;8.80;;;6.40;;
45909;SDS011;31622;55.416;37.840;2024-03-02T13:25:06;10.57;;;6.95;;
45909;SDS011;31622;55.416;37.840;2024-03-02T13:27:35;9.93;;;5.78;;
45909;SDS011;31622;55.416;37.840;2024-03-02T13:30:02;9.20;;;6.05;;
45909;SDS011;31622;55.416;37.840;2024-03-02T13:32:29;10.20;;;6.50;;
45909;SDS011;31622;55.416;37.840;2024-03-02T13:34:54;8.60;;;6.00;;
45909;SDS011;31622;55.416;37.840;2024-03-02T13:37:20;8.77;;;5.47;;
45909;SDS011;31622;55.416;37.840;2024-03-02T13:39:46;8.07;;;6.00;;
45909;SDS011;31622;55.416;37.840;2024-03-02T13:42:12;8.68;;;5.85;;
45909;SDS011;31622;55.416;37.840;2024-03-02T13:44:40;7.82;;;5.53;;
45909;SDS011;31622;55.416;37.840;2024-03-02T13:47:07;9.00;;;5.30;;
45909;SDS011;31622;55.416;37.840;2024-03-02T13:49:32;7.57;;;5.20;;
45909;SDS011;31622;55.416;37.840;2024-03-02T13:52:00;8.07;;;5.43;;
45909;SDS011;31622;55.416;37.840;2024-03-02T13:54:28;7.72;;;4.72;;
45909;SDS011;31622;55.416;37.840;2024-03-02T13:56:55;7.25;;;4.95;;
45909;SDS011;31622;55.416;37.840;2024-03-02T13:59:23;7.65;;;4.88;;
45909;SDS011;31622;55.416;37.840;2024-03-02T14:01:50;7.18;;;5.28;;
45909;SDS011;31622;55.416;37.840;2024-03-02T14:04:16;7.75;;;5.30;;
45909;SDS011;31622;55.416;37.840;2024-03-02T14:06:42;7.95;;;5.13;;
45909;SDS011;31622;55.416;37.840;2024-03-02T14:09:08;6.72;;;5.05;;
45909;SDS011;31622;55.416;37.840;2024-03-02T14:11:34;6.82;;;4.72;;
45909;SDS011;31622;55.416;37.840;2024-03-02T14:14:01;8.07;;;5.22;;
45909;SDS011;31622;55.416;37.840;2024-03-02T14:16:27;10.73;;;5.70;;
45909;SDS011;31622;55.416;37.840;2024-03-02T14:18:53;8.88;;;5.32;;
45909;SDS011;31622;55.416;37.840;2024-03-02T14:21:19;9.65;;;5.45;;
45909;SDS011;31622;55.416;37.840;2024-03-02T14:23:44;9.00;;;5.50;;
45909;SDS011;31622;55.416;37.840;2024-03-02T14:26:10;9.40;;;5.10;;
45909;SDS011;31622;55.416;37.840;2024-03-02T14:28:36;9.50;;;5.60;;
45909;SDS011;31622;55.416;37.840;2024-03-02T14:31:02;9.48;;;5.22;;
45909;SDS011;31622;55.416;37.840;2024-03-02T14:33:28;8.00;;;5.07;;
45909;SDS011;31622;55.416;37.840;2024-03-02T14:35:53;7.53;;;4.88;;
45909;SDS011;31622;55.416;37.840;2024-03-02T14:38:19;8.40;;;4.97;;